Airfield :
LOGIN :

Register | Disclaimer

   EN    FR    IT 

 










Legend :    VFR   Marginal VFR   IFR   Intensive IFR   Very Intensive IFR
Visi :
Ceiling :
>= 8 km
>= 3000ft
5 to 8 km
1000 to 3000 ft
1500m to 5 km
500 to 1000 ft
800 to 1500m
200 to 500 ft
< 800m
< 200 ft
Symbols :   Thunderstorms  Fog  Heavy snow  Heavy precipitations  Wind > 20 kt
SIGMETs :     Misc.  Thunderstorms  Icing  Turbulence  Mountain Waves  Volcanic Ashes







- Airport Elevation : 510 ft


LJCE - Cerklje

CURRENT METAR :
  • 251500Z AUTO 05009KT 020V090 //// R09///// NCD 14/00 Q1034

EXPIRED METARs :
  • 251430Z AUTO 08009KT 030V110 //// R09///// NSC 14/02 Q1035
  • 251400Z AUTO 06009KT 030V090 //// R09///// NSC 15/02 Q1034
  • 251330Z AUTO 06007KT 030V120 //// R09///// NSC 15/01 Q1034
  • 251300Z 05010KT 350V100 CAVOK 15/M00 Q1035 RMK BLU
  • 251230Z 04007KT 340V090 9999 FEW047 SCT055 14/02 Q1035 RMK BLU

TAF TAF LJCE
Valid from the 25 at 15:00 until the 26 at 00:00 UTC


251400Z 2515/2524 08005KT CAVOK
TEMPO 2515/2518 05010KT FEW040 BKN060
No reported NOTAMs for that airfield.



MET'MAP, your aeronautical weather chart ! - Copyright ORBIFLY December 2007 - Disclaimer

ORBIFLY MET'MAP TEAM :

Programming & Development : Alexandra Zaïnal
Concept & Development : Baudouin d'Aumeries
Co-Development & Prog : Marc-Olivier Méhu
Technical & hardware support : Manuel Goepfert

Contact : metmap@orbifly.com




SOURCES & CREDITS :

   NOAA